sensor_id;sensor_type;location;lat;lon;timestamp;pressure;altitude;pressure_sealevel;temperature;humidity
12358;BME280;6243;51.244;6.774;2024-01-30T00:01:58;115150.97;;;-141.28;44.65
12358;BME280;6243;51.244;6.774;2024-01-30T00:04:23;115150.97;;;-141.28;45.18
12358;BME280;6243;51.244;6.774;2024-01-30T00:06:50;115150.97;;;-141.28;45.08
12358;BME280;6243;51.244;6.774;2024-01-30T00:09:16;115150.97;;;-141.28;46.06
12358;BME280;6243;51.244;6.774;2024-01-30T00:11:41;115150.97;;;-141.28;44.95
12358;BME280;6243;51.244;6.774;2024-01-30T00:14:08;115150.97;;;-141.28;45.48
12358;BME280;6243;51.244;6.774;2024-01-30T00:16:34;115150.97;;;-141.28;45.36
12358;BME280;6243;51.244;6.774;2024-01-30T00:18:59;115150.97;;;-141.28;45.22
12358;BME280;6243;51.244;6.774;2024-01-30T00:21:25;115150.97;;;-141.28;45.18
12358;BME280;6243;51.244;6.774;2024-01-30T00:23:50;115150.97;;;-141.28;46.16
12358;BME280;6243;51.244;6.774;2024-01-30T00:26:16;115150.97;;;-141.28;45.20
12358;BME280;6243;51.244;6.774;2024-01-30T00:28:41;115150.97;;;-141.28;45.43
12358;BME280;6243;51.244;6.774;2024-01-30T00:31:09;115150.97;;;-141.28;45.66
12358;BME280;6243;51.244;6.774;2024-01-30T00:33:34;115150.97;;;-141.28;46.31
12358;BME280;6243;51.244;6.774;2024-01-30T00:36:00;115150.97;;;-141.28;46.10
12358;BME280;6243;51.244;6.774;2024-01-30T00:38:25;115150.97;;;-141.28;45.19
12358;BME280;6243;51.244;6.774;2024-01-30T00:40:50;115150.97;;;-141.28;45.66
12358;BME280;6243;51.244;6.774;2024-01-30T00:43:16;115150.97;;;-141.28;45.53
12358;BME280;6243;51.244;6.774;2024-01-30T00:45:43;115150.97;;;-141.28;45.71
12358;BME280;6243;51.244;6.774;2024-01-30T00:48:10;115150.97;;;-141.28;45.60
12358;BME280;6243;51.244;6.774;2024-01-30T00:50:35;115150.97;;;-141.28;46.38
12358;BME280;6243;51.244;6.774;2024-01-30T00:53:01;115150.97;;;-141.28;45.46
12358;BME280;6243;51.244;6.774;2024-01-30T00:55:26;115150.97;;;-141.28;45.96
12358;BME280;6243;51.244;6.774;2024-01-30T00:57:52;115150.97;;;-141.28;45.94
12358;BME280;6243;51.244;6.774;2024-01-30T01:00:18;115150.97;;;-141.28;45.63
12358;BME280;6243;51.244;6.774;2024-01-30T01:02:43;115150.97;;;-141.28;45.25
12358;BME280;6243;51.244;6.774;2024-01-30T01:05:10;115150.97;;;-141.28;45.23
12358;BME280;6243;51.244;6.774;2024-01-30T01:07:36;115150.97;;;-141.28;45.79
12358;BME280;6243;51.244;6.774;2024-01-30T01:10:01;115150.97;;;-141.28;46.01
12358;BME280;6243;51.244;6.774;2024-01-30T01:12:27;115150.97;;;-141.28;45.35
12358;BME280;6243;51.244;6.774;2024-01-30T01:14:52;115150.97;;;-141.28;45.58
12358;BME280;6243;51.244;6.774;2024-01-30T01:17:18;115150.97;;;-141.28;45.11
12358;BME280;6243;51.244;6.774;2024-01-30T01:19:43;115150.97;;;-141.28;45.33
12358;BME280;6243;51.244;6.774;2024-01-30T01:22:10;115150.97;;;-141.28;45.18
12358;BME280;6243;51.244;6.774;2024-01-30T01:24:36;115150.97;;;-141.28;45.59
12358;BME280;6243;51.244;6.774;2024-01-30T01:27:02;115150.97;;;-141.28;45.76
12358;BME280;6243;51.244;6.774;2024-01-30T01:29:27;115150.97;;;-141.28;45.97
12358;BME280;6243;51.244;6.774;2024-01-30T01:31:53;115150.97;;;-141.28;45.79
12358;BME280;6243;51.244;6.774;2024-01-30T01:34:18;115150.97;;;-141.28;45.74
12358;BME280;6243;51.244;6.774;2024-01-30T01:36:44;115150.97;;;-141.28;46.03
12358;BME280;6243;51.244;6.774;2024-01-30T01:39:11;115150.97;;;-141.28;46.49
12358;BME280;6243;51.244;6.774;2024-01-30T01:41:36;115150.97;;;-141.28;46.04
12358;BME280;6243;51.244;6.774;2024-01-30T01:44:02;115150.97;;;-141.28;46.18
12358;BME280;6243;51.244;6.774;2024-01-30T01:46:30;115150.97;;;-141.28;46.19
12358;BME280;6243;51.244;6.774;2024-01-30T01:48:56;115150.97;;;-141.28;46.51
12358;BME280;6243;51.244;6.774;2024-01-30T01:51:22;115150.97;;;-141.28;45.93
12358;BME280;6243;51.244;6.774;2024-01-30T01:53:48;115150.97;;;-141.28;45.74
12358;BME280;6243;51.244;6.774;2024-01-30T01:56:15;115150.97;;;-141.28;46.06
12358;BME280;6243;51.244;6.774;2024-01-30T01:58:41;115150.97;;;-141.28;45.48
12358;BME280;6243;51.244;6.774;2024-01-30T02:01:07;115150.97;;;-141.28;45.66
12358;BME280;6243;51.244;6.774;2024-01-30T02:03:33;115150.97;;;-141.28;45.84
12358;BME280;6243;51.244;6.774;2024-01-30T02:05:59;115150.97;;;-141.28;45.75
12358;BME280;6243;51.244;6.774;2024-01-30T02:08:25;115150.97;;;-141.28;45.54
12358;BME280;6243;51.244;6.774;2024-01-30T02:10:51;115150.97;;;-141.28;45.58
12358;BME280;6243;51.244;6.774;2024-01-30T02:13:18;115150.97;;;-141.28;45.71
12358;BME280;6243;51.244;6.774;2024-01-30T02:15:43;115150.97;;;-141.28;45.87
12358;BME280;6243;51.244;6.774;2024-01-30T02:18:09;115150.97;;;-141.28;45.86
12358;BME280;6243;51.244;6.774;2024-01-30T02:20:35;115150.97;;;-141.28;45.65
12358;BME280;6243;51.244;6.774;2024-01-30T02:23:02;115150.97;;;-141.28;45.63
12358;BME280;6243;51.244;6.774;2024-01-30T02:25:31;115150.97;;;-141.28;45.76
12358;BME280;6243;51.244;6.774;2024-01-30T02:27:57;115150.97;;;-141.28;45.77
12358;BME280;6243;51.244;6.774;2024-01-30T02:30:22;115150.97;;;-141.28;45.76
12358;BME280;6243;51.244;6.774;2024-01-30T02:32:48;115150.97;;;-141.28;45.52
12358;BME280;6243;51.244;6.774;2024-01-30T02:35:13;115150.97;;;-141.28;45.98
12358;BME280;6243;51.244;6.774;2024-01-30T02:37:39;115150.97;;;-141.28;45.58
12358;BME280;6243;51.244;6.774;2024-01-30T02:40:07;115150.97;;;-141.28;45.73
12358;BME280;6243;51.244;6.774;2024-01-30T02:42:32;115150.97;;;-141.28;46.42
12358;BME280;6243;51.244;6.774;2024-01-30T02:44:58;115150.97;;;-141.28;46.12
12358;BME280;6243;51.244;6.774;2024-01-30T02:47:23;115150.97;;;-141.28;46.32
12358;BME280;6243;51.244;6.774;2024-01-30T02:49:49;115150.97;;;-141.28;45.74
12358;BME280;6243;51.244;6.774;2024-01-30T02:52:15;115150.97;;;-141.28;46.07
12358;BME280;6243;51.244;6.774;2024-01-30T02:54:40;115150.97;;;-141.28;46.08
12358;BME280;6243;51.244;6.774;2024-01-30T02:57:07;115150.97;;;-141.28;45.24
12358;BME280;6243;51.244;6.774;2024-01-30T02:59:32;115150.97;;;-141.28;45.83
12358;BME280;6243;51.244;6.774;2024-01-30T03:01:58;115150.97;;;-141.28;45.76
12358;BME280;6243;51.244;6.774;2024-01-30T03:04:23;115150.97;;;-141.28;45.81
12358;BME280;6243;51.244;6.774;2024-01-30T03:06:49;115150.97;;;-141.28;45.18
12358;BME280;6243;51.244;6.774;2024-01-30T03:09:16;115150.97;;;-141.28;45.43
12358;BME280;6243;51.244;6.774;2024-01-30T03:11:41;115150.97;;;-141.28;45.73
12358;BME280;6243;51.244;6.774;2024-01-30T03:14:08;115150.97;;;-141.28;45.88
12358;BME280;6243;51.244;6.774;2024-01-30T03:16:33;115150.97;;;-141.28;45.50
12358;BME280;6243;51.244;6.774;2024-01-30T03:18:59;115150.97;;;-141.28;45.74
12358;BME280;6243;51.244;6.774;2024-01-30T03:21:24;115150.97;;;-141.28;46.44
12358;BME280;6243;51.244;6.774;2024-01-30T03:23:50;115150.97;;;-141.28;45.94
12358;BME280;6243;51.244;6.774;2024-01-30T03:26:15;115150.97;;;-141.28;45.77
12358;BME280;6243;51.244;6.774;2024-01-30T03:28:41;115150.97;;;-141.28;46.03
12358;BME280;6243;51.244;6.774;2024-01-30T03:31:08;115150.97;;;-141.28;46.09
12358;BME280;6243;51.244;6.774;2024-01-30T03:33:33;115150.97;;;-141.28;46.15
12358;BME280;6243;51.244;6.774;2024-01-30T03:36:03;115150.97;;;-141.28;46.16
12358;BME280;6243;51.244;6.774;2024-01-30T03:38:28;115150.97;;;-141.28;45.89
12358;BME280;6243;51.244;6.774;2024-01-30T03:40:54;115150.97;;;-141.28;46.21
12358;BME280;6243;51.244;6.774;2024-01-30T03:43:19;115150.97;;;-141.28;45.86
12358;BME280;6243;51.244;6.774;2024-01-30T03:45:45;115150.97;;;-141.28;45.38
12358;BME280;6243;51.244;6.774;2024-01-30T03:48:11;115150.97;;;-141.28;45.43
12358;BME280;6243;51.244;6.774;2024-01-30T03:50:37;115150.97;;;-141.28;46.19
12358;BME280;6243;51.244;6.774;2024-01-30T03:53:03;115150.97;;;-141.28;45.98
12358;BME280;6243;51.244;6.774;2024-01-30T03:55:28;115150.97;;;-141.28;45.61
12358;BME280;6243;51.244;6.774;2024-01-30T03:57:54;115150.97;;;-141.28;46.44
12358;BME280;6243;51.244;6.774;2024-01-30T04:00:19;115150.97;;;-141.28;46.43
12358;BME280;6243;51.244;6.774;2024-01-30T04:02:45;115150.97;;;-141.28;45.89
12358;BME280;6243;51.244;6.774;2024-01-30T04:05:12;115150.97;;;-141.28;46.05
12358;BME280;6243;51.244;6.774;2024-01-30T04:07:37;115150.97;;;-141.28;45.60
12358;BME280;6243;51.244;6.774;2024-01-30T04:10:04;115150.97;;;-141.28;46.11
12358;BME280;6243;51.244;6.774;2024-01-30T04:12:29;115150.97;;;-141.28;45.94
12358;BME280;6243;51.244;6.774;2024-01-30T04:14:55;115150.97;;;-141.28;45.63
12358;BME280;6243;51.244;6.774;2024-01-30T04:17:20;115150.97;;;-141.28;45.49
12358;BME280;6243;51.244;6.774;2024-01-30T04:19:46;115150.97;;;-141.28;45.14
12358;BME280;6243;51.244;6.774;2024-01-30T04:22:13;115150.97;;;-141.28;45.74
12358;BME280;6243;51.244;6.774;2024-01-30T04:24:38;115150.97;;;-141.28;45.81
12358;BME280;6243;51.244;6.774;2024-01-30T04:27:04;115150.97;;;-141.28;46.23
12358;BME280;6243;51.244;6.774;2024-01-30T04:29:29;115150.97;;;-141.28;45.99
12358;BME280;6243;51.244;6.774;2024-01-30T04:31:55;115150.97;;;-141.28;46.72
12358;BME280;6243;51.244;6.774;2024-01-30T04:34:20;115150.97;;;-141.28;46.41
12358;BME280;6243;51.244;6.774;2024-01-30T04:36:46;115150.97;;;-141.28;46.56
12358;BME280;6243;51.244;6.774;2024-01-30T04:39:13;115150.97;;;-141.28;46.15
12358;BME280;6243;51.244;6.774;2024-01-30T04:41:38;115150.97;;;-141.28;46.04
12358;BME280;6243;51.244;6.774;2024-01-30T04:44:04;115150.97;;;-141.28;46.09
12358;BME280;6243;51.244;6.774;2024-01-30T04:46:29;115150.97;;;-141.28;46.97
12358;BME280;6243;51.244;6.774;2024-01-30T04:48:55;115150.97;;;-141.28;46.56
12358;BME280;6243;51.244;6.774;2024-01-30T04:51:20;115150.97;;;-141.28;46.21
12358;BME280;6243;51.244;6.774;2024-01-30T04:53:46;115150.97;;;-141.28;46.34
12358;BME280;6243;51.244;6.774;2024-01-30T04:56:12;115150.97;;;-141.28;46.13
12358;BME280;6243;51.244;6.774;2024-01-30T04:58:38;115150.97;;;-141.28;46.06
12358;BME280;6243;51.244;6.774;2024-01-30T05:01:04;115150.97;;;-141.28;46.53
12358;BME280;6243;51.244;6.774;2024-01-30T05:03:33;115150.97;;;-141.28;45.65
12358;BME280;6243;51.244;6.774;2024-01-30T05:05:58;115150.97;;;-141.28;46.07
12358;BME280;6243;51.244;6.774;2024-01-30T05:08:24;115150.97;;;-141.28;46.48
12358;BME280;6243;51.244;6.774;2024-01-30T05:10:49;115150.97;;;-141.28;46.17
12358;BME280;6243;51.244;6.774;2024-01-30T05:13:16;115150.97;;;-141.28;45.71
12358;BME280;6243;51.244;6.774;2024-01-30T05:15:41;115150.97;;;-141.28;45.26
12358;BME280;6243;51.244;6.774;2024-01-30T05:18:07;115150.97;;;-141.28;46.28
12358;BME280;6243;51.244;6.774;2024-01-30T05:20:32;115150.97;;;-141.28;45.46
12358;BME280;6243;51.244;6.774;2024-01-30T05:22:58;115150.97;;;-141.28;45.98
12358;BME280;6243;51.244;6.774;2024-01-30T05:25:23;115150.97;;;-141.28;46.06
12358;BME280;6243;51.244;6.774;2024-01-30T05:27:49;115150.97;;;-141.28;46.04
12358;BME280;6243;51.244;6.774;2024-01-30T05:30:16;115150.97;;;-141.28;46.26
12358;BME280;6243;51.244;6.774;2024-01-30T05:32:43;115150.97;;;-141.28;45.83
12358;BME280;6243;51.244;6.774;2024-01-30T05:35:09;115150.97;;;-141.28;46.04
12358;BME280;6243;51.244;6.774;2024-01-30T05:37:34;115150.97;;;-141.28;46.14
12358;BME280;6243;51.244;6.774;2024-01-30T05:39:59;115150.97;;;-141.28;46.89
12358;BME280;6243;51.244;6.774;2024-01-30T05:42:26;115150.97;;;-141.28;47.39
12358;BME280;6243;51.244;6.774;2024-01-30T05:44:52;115150.97;;;-141.28;45.74
12358;BME280;6243;51.244;6.774;2024-01-30T05:47:18;115150.97;;;-141.28;46.69
12358;BME280;6243;51.244;6.774;2024-01-30T05:49:44;115150.97;;;-141.28;46.90
12358;BME280;6243;51.244;6.774;2024-01-30T05:52:09;115150.97;;;-141.28;46.31
12358;BME280;6243;51.244;6.774;2024-01-30T05:54:35;115150.97;;;-141.28;46.10
12358;BME280;6243;51.244;6.774;2024-01-30T05:57:00;115150.97;;;-141.28;46.24
12358;BME280;6243;51.244;6.774;2024-01-30T05:59:26;115150.97;;;-141.28;46.70
12358;BME280;6243;51.244;6.774;2024-01-30T06:01:51;115150.97;;;-141.28;47.02
12358;BME280;6243;51.244;6.774;2024-01-30T06:04:18;115150.97;;;-141.28;46.89
12358;BME280;6243;51.244;6.774;2024-01-30T06:06:44;115150.97;;;-141.28;47.68
12358;BME280;6243;51.244;6.774;2024-01-30T06:09:09;115150.97;;;-141.28;47.04
12358;BME280;6243;51.244;6.774;2024-01-30T06:11:35;115150.97;;;-141.28;47.04
12358;BME280;6243;51.244;6.774;2024-01-30T06:14:00;115150.97;;;-141.28;47.52
12358;BME280;6243;51.244;6.774;2024-01-30T06:16:26;115150.97;;;-141.28;47.07
12358;BME280;6243;51.244;6.774;2024-01-30T06:18:51;115150.97;;;-141.28;48.16
12358;BME280;6243;51.244;6.774;2024-01-30T06:21:18;115150.97;;;-141.28;48.70
12358;BME280;6243;51.244;6.774;2024-01-30T06:23:44;115150.97;;;-141.28;47.36
12358;BME280;6243;51.244;6.774;2024-01-30T06:26:09;115150.97;;;-141.28;47.93
12358;BME280;6243;51.244;6.774;2024-01-30T06:28:35;115150.97;;;-141.28;47.35
12358;BME280;6243;51.244;6.774;2024-01-30T06:31:01;115150.97;;;-141.28;46.90
12358;BME280;6243;51.244;6.774;2024-01-30T06:33:26;115150.97;;;-141.28;47.16
12358;BME280;6243;51.244;6.774;2024-01-30T06:35:52;115150.97;;;-141.28;46.92
12358;BME280;6243;51.244;6.774;2024-01-30T06:38:19;115150.97;;;-141.28;46.71
12358;BME280;6243;51.244;6.774;2024-01-30T06:40:44;115150.97;;;-141.28;47.02
12358;BME280;6243;51.244;6.774;2024-01-30T06:43:10;115150.97;;;-141.28;47.02
12358;BME280;6243;51.244;6.774;2024-01-30T06:45:35;115150.97;;;-141.28;47.50
12358;BME280;6243;51.244;6.774;2024-01-30T06:48:01;115150.97;;;-141.28;46.47
12358;BME280;6243;51.244;6.774;2024-01-30T06:50:26;115150.97;;;-141.28;46.39
12358;BME280;6243;51.244;6.774;2024-01-30T06:52:52;115150.97;;;-141.28;46.52
12358;BME280;6243;51.244;6.774;2024-01-30T06:55:19;115150.97;;;-141.28;46.84
12358;BME280;6243;51.244;6.774;2024-01-30T06:57:44;115150.97;;;-141.28;46.84
12358;BME280;6243;51.244;6.774;2024-01-30T07:00:11;115150.97;;;-141.28;46.75
12358;BME280;6243;51.244;6.774;2024-01-30T07:02:36;115150.97;;;-141.28;46.91
12358;BME280;6243;51.244;6.774;2024-01-30T07:05:03;115150.97;;;-141.28;46.79
12358;BME280;6243;51.244;6.774;2024-01-30T07:07:28;115150.97;;;-141.28;46.71
12358;BME280;6243;51.244;6.774;2024-01-30T07:09:54;115150.97;;;-141.28;46.39
12358;BME280;6243;51.244;6.774;2024-01-30T07:12:20;115150.97;;;-141.28;46.96
12358;BME280;6243;51.244;6.774;2024-01-30T07:14:46;115150.97;;;-141.28;46.79
12358;BME280;6243;51.244;6.774;2024-01-30T07:17:11;115150.97;;;-141.28;46.77
12358;BME280;6243;51.244;6.774;2024-01-30T07:19:37;115150.97;;;-141.28;46.77
12358;BME280;6243;51.244;6.774;2024-01-30T07:22:03;115150.97;;;-141.28;46.58
12358;BME280;6243;51.244;6.774;2024-01-30T07:24:28;115150.97;;;-141.28;46.22
12358;BME280;6243;51.244;6.774;2024-01-30T07:26:54;115150.97;;;-141.28;46.82
12358;BME280;6243;51.244;6.774;2024-01-30T07:29:21;115150.97;;;-141.28;46.36
12358;BME280;6243;51.244;6.774;2024-01-30T07:31:47;115150.97;;;-141.28;46.94
12358;BME280;6243;51.244;6.774;2024-01-30T07:34:12;115150.97;;;-141.28;46.43
12358;BME280;6243;51.244;6.774;2024-01-30T07:36:38;115150.97;;;-141.28;47.08
12358;BME280;6243;51.244;6.774;2024-01-30T07:39:03;115150.97;;;-141.28;47.52
12358;BME280;6243;51.244;6.774;2024-01-30T07:41:29;115150.97;;;-141.28;46.97
12358;BME280;6243;51.244;6.774;2024-01-30T07:43:54;115150.97;;;-141.28;46.92
12358;BME280;6243;51.244;6.774;2024-01-30T07:46:21;115150.97;;;-141.28;47.02
12358;BME280;6243;51.244;6.774;2024-01-30T07:48:46;115150.97;;;-141.28;46.44
12358;BME280;6243;51.244;6.774;2024-01-30T07:51:12;115150.97;;;-141.28;46.61
12358;BME280;6243;51.244;6.774;2024-01-30T07:53:37;115150.97;;;-141.28;46.63
12358;BME280;6243;51.244;6.774;2024-01-30T07:56:03;115150.97;;;-141.28;47.20
12358;BME280;6243;51.244;6.774;2024-01-30T07:58:29;115150.97;;;-141.28;46.94
12358;BME280;6243;51.244;6.774;2024-01-30T08:00:54;115150.97;;;-141.28;46.49
12358;BME280;6243;51.244;6.774;2024-01-30T08:03:22;115150.97;;;-141.28;46.21
12358;BME280;6243;51.244;6.774;2024-01-30T08:05:47;115150.97;;;-141.28;46.76
12358;BME280;6243;51.244;6.774;2024-01-30T08:08:13;115150.97;;;-141.28;46.26
12358;BME280;6243;51.244;6.774;2024-01-30T08:10:38;115150.97;;;-141.28;46.67
12358;BME280;6243;51.244;6.774;2024-01-30T08:13:04;115150.97;;;-141.28;45.95
12358;BME280;6243;51.244;6.774;2024-01-30T08:15:29;115150.97;;;-141.28;46.64
12358;BME280;6243;51.244;6.774;2024-01-30T08:17:54;115150.97;;;-141.28;46.06
12358;BME280;6243;51.244;6.774;2024-01-30T08:20:21;115150.97;;;-141.28;47.26
12358;BME280;6243;51.244;6.774;2024-01-30T08:22:47;115150.97;;;-141.28;46.07
12358;BME280;6243;51.244;6.774;2024-01-30T08:25:12;115150.97;;;-141.28;45.99
12358;BME280;6243;51.244;6.774;2024-01-30T08:27:38;115150.97;;;-141.28;46.64
12358;BME280;6243;51.244;6.774;2024-01-30T08:30:05;115150.97;;;-141.28;46.71
12358;BME280;6243;51.244;6.774;2024-01-30T08:32:31;115150.97;;;-141.28;46.30
12358;BME280;6243;51.244;6.774;2024-01-30T08:34:56;115150.97;;;-141.28;46.29
12358;BME280;6243;51.244;6.774;2024-01-30T08:37:23;115150.97;;;-141.28;46.42
12358;BME280;6243;51.244;6.774;2024-01-30T08:39:49;115150.97;;;-141.28;45.74
12358;BME280;6243;51.244;6.774;2024-01-30T08:42:14;115150.97;;;-141.28;45.89
12358;BME280;6243;51.244;6.774;2024-01-30T08:44:40;115150.97;;;-141.28;46.29
12358;BME280;6243;51.244;6.774;2024-01-30T08:47:07;115150.97;;;-141.28;46.49
12358;BME280;6243;51.244;6.774;2024-01-30T08:49:32;115150.97;;;-141.28;46.44
12358;BME280;6243;51.244;6.774;2024-01-30T08:51:58;115150.97;;;-141.28;45.64
12358;BME280;6243;51.244;6.774;2024-01-30T08:54:25;115150.97;;;-141.28;45.63
12358;BME280;6243;51.244;6.774;2024-01-30T08:56:50;115150.97;;;-141.28;45.28
12358;BME280;6243;51.244;6.774;2024-01-30T08:59:16;115150.97;;;-141.28;45.49
12358;BME280;6243;51.244;6.774;2024-01-30T09:01:41;115150.97;;;-141.28;46.36
12358;BME280;6243;51.244;6.774;2024-01-30T09:04:07;115150.97;;;-141.28;45.66
12358;BME280;6243;51.244;6.774;2024-01-30T09:06:32;115150.97;;;-141.28;46.29
12358;BME280;6243;51.244;6.774;2024-01-30T09:08:58;115150.97;;;-141.28;45.88
12358;BME280;6243;51.244;6.774;2024-01-30T09:11:24;115150.97;;;-141.28;46.16
12358;BME280;6243;51.244;6.774;2024-01-30T09:13:50;115150.97;;;-141.28;45.73
12358;BME280;6243;51.244;6.774;2024-01-30T09:16:15;115150.97;;;-141.28;45.97
12358;BME280;6243;51.244;6.774;2024-01-30T09:18:41;115150.97;;;-141.28;46.01
12358;BME280;6243;51.244;6.774;2024-01-30T09:21:07;115150.97;;;-141.28;46.32
12358;BME280;6243;51.244;6.774;2024-01-30T09:23:33;115150.97;;;-141.28;45.83
12358;BME280;6243;51.244;6.774;2024-01-30T09:25:58;115150.97;;;-141.28;45.68
12358;BME280;6243;51.244;6.774;2024-01-30T09:28:25;115150.97;;;-141.28;45.95
12358;BME280;6243;51.244;6.774;2024-01-30T09:30:51;115150.97;;;-141.28;45.80
12358;BME280;6243;51.244;6.774;2024-01-30T09:33:16;115150.97;;;-141.28;46.23
12358;BME280;6243;51.244;6.774;2024-01-30T09:35:42;115150.97;;;-141.28;46.28
12358;BME280;6243;51.244;6.774;2024-01-30T09:38:07;115150.97;;;-141.28;46.24
12358;BME280;6243;51.244;6.774;2024-01-30T09:40:33;115150.97;;;-141.28;46.18
12358;BME280;6243;51.244;6.774;2024-01-30T09:42:59;115150.97;;;-141.28;45.13
12358;BME280;6243;51.244;6.774;2024-01-30T09:45:26;115150.97;;;-141.28;45.48
12358;BME280;6243;51.244;6.774;2024-01-30T09:47:52;115150.97;;;-141.28;45.77
12358;BME280;6243;51.244;6.774;2024-01-30T09:50:18;115150.97;;;-141.28;45.94
12358;BME280;6243;51.244;6.774;2024-01-30T09:52:44;115150.97;;;-141.28;45.51
12358;BME280;6243;51.244;6.774;2024-01-30T09:55:10;115150.97;;;-141.28;45.79
12358;BME280;6243;51.244;6.774;2024-01-30T09:57:36;115150.97;;;-141.28;45.42
12358;BME280;6243;51.244;6.774;2024-01-30T10:00:01;115150.97;;;-141.28;45.55
12358;BME280;6243;51.244;6.774;2024-01-30T10:02:28;115150.97;;;-141.28;44.57
12358;BME280;6243;51.244;6.774;2024-01-30T10:04:54;115150.97;;;-141.28;45.02
12358;BME280;6243;51.244;6.774;2024-01-30T10:07:19;115150.97;;;-141.28;45.36
12358;BME280;6243;51.244;6.774;2024-01-30T10:09:46;115150.97;;;-141.28;44.57
12358;BME280;6243;51.244;6.774;2024-01-30T10:12:12;115150.97;;;-141.28;44.55
12358;BME280;6243;51.244;6.774;2024-01-30T10:14:38;115150.97;;;-141.28;44.85
12358;BME280;6243;51.244;6.774;2024-01-30T10:17:03;115150.97;;;-141.28;45.13
12358;BME280;6243;51.244;6.774;2024-01-30T10:19:30;115150.97;;;-141.28;45.00
12358;BME280;6243;51.244;6.774;2024-01-30T10:21:56;115150.97;;;-141.28;44.86
12358;BME280;6243;51.244;6.774;2024-01-30T10:24:24;115150.97;;;-141.28;45.12
12358;BME280;6243;51.244;6.774;2024-01-30T10:26:49;115150.97;;;-141.28;45.16
12358;BME280;6243;51.244;6.774;2024-01-30T10:29:16;115150.97;;;-141.28;45.25
12358;BME280;6243;51.244;6.774;2024-01-30T10:31:41;115150.97;;;-141.28;45.46
12358;BME280;6243;51.244;6.774;2024-01-30T10:34:07;115150.97;;;-141.28;45.17
12358;BME280;6243;51.244;6.774;2024-01-30T10:36:38;115150.97;;;-141.28;45.20
12358;BME280;6243;51.244;6.774;2024-01-30T10:39:05;115150.97;;;-141.28;45.32
12358;BME280;6243;51.244;6.774;2024-01-30T10:41:37;115150.97;;;-141.28;45.05
12358;BME280;6243;51.244;6.774;2024-01-30T10:44:09;115150.97;;;-141.28;45.41
12358;BME280;6243;51.244;6.774;2024-01-30T10:46:35;115150.97;;;-141.28;44.70
12358;BME280;6243;51.244;6.774;2024-01-30T10:49:04;115150.97;;;-141.28;44.75
12358;BME280;6243;51.244;6.774;2024-01-30T10:51:31;115150.97;;;-141.28;44.16
12358;BME280;6243;51.244;6.774;2024-01-30T10:53:58;115150.97;;;-141.28;44.13
12358;BME280;6243;51.244;6.774;2024-01-30T10:56:24;115150.97;;;-141.28;44.40
12358;BME280;6243;51.244;6.774;2024-01-30T10:58:50;115150.97;;;-141.28;44.47
12358;BME280;6243;51.244;6.774;2024-01-30T11:01:16;115150.97;;;-141.28;44.81
12358;BME280;6243;51.244;6.774;2024-01-30T11:03:42;115150.97;;;-141.28;44.83
12358;BME280;6243;51.244;6.774;2024-01-30T11:06:10;115150.97;;;-141.28;44.48
12358;BME280;6243;51.244;6.774;2024-01-30T11:08:36;115150.97;;;-141.28;44.32
12358;BME280;6243;51.244;6.774;2024-01-30T11:11:08;115150.97;;;-141.28;44.28
12358;BME280;6243;51.244;6.774;2024-01-30T11:13:34;115150.97;;;-141.28;44.40
12358;BME280;6243;51.244;6.774;2024-01-30T11:16:00;115150.97;;;-141.28;44.74
12358;BME280;6243;51.244;6.774;2024-01-30T11:18:29;115150.97;;;-141.28;44.53
12358;BME280;6243;51.244;6.774;2024-01-30T11:20:56;115150.97;;;-141.28;44.10
12358;BME280;6243;51.244;6.774;2024-01-30T11:23:22;115150.97;;;-141.28;44.24
12358;BME280;6243;51.244;6.774;2024-01-30T11:25:48;115150.97;;;-141.28;43.88
12358;BME280;6243;51.244;6.774;2024-01-30T11:28:15;115150.97;;;-141.28;43.71
12358;BME280;6243;51.244;6.774;2024-01-30T11:30:41;115150.97;;;-141.28;44.06
12358;BME280;6243;51.244;6.774;2024-01-30T11:33:08;115150.97;;;-141.28;44.09
12358;BME280;6243;51.244;6.774;2024-01-30T11:35:34;115150.97;;;-141.28;43.89
12358;BME280;6243;51.244;6.774;2024-01-30T11:38:01;115150.97;;;-141.28;43.98
12358;BME280;6243;51.244;6.774;2024-01-30T11:40:28;115150.97;;;-141.28;43.58
12358;BME280;6243;51.244;6.774;2024-01-30T11:42:54;115150.97;;;-141.28;43.35
12358;BME280;6243;51.244;6.774;2024-01-30T11:45:21;115150.97;;;-141.28;43.33
12358;BME280;6243;51.244;6.774;2024-01-30T11:47:47;115150.97;;;-141.28;43.74
12358;BME280;6243;51.244;6.774;2024-01-30T11:50:13;115150.97;;;-141.28;43.89
12358;BME280;6243;51.244;6.774;2024-01-30T11:52:38;115150.97;;;-141.28;43.90
12358;BME280;6243;51.244;6.774;2024-01-30T11:55:04;115150.97;;;-141.28;43.85
12358;BME280;6243;51.244;6.774;2024-01-30T11:57:30;115150.97;;;-141.28;43.77
12358;BME280;6243;51.244;6.774;2024-01-30T11:59:56;115150.97;;;-141.28;43.69
12358;BME280;6243;51.244;6.774;2024-01-30T12:02:22;115150.97;;;-141.28;44.08
12358;BME280;6243;51.244;6.774;2024-01-30T12:04:48;115150.97;;;-141.28;43.87
12358;BME280;6243;51.244;6.774;2024-01-30T12:07:14;115150.97;;;-141.28;43.81
12358;BME280;6243;51.244;6.774;2024-01-30T12:09:39;115150.97;;;-141.28;43.75
12358;BME280;6243;51.244;6.774;2024-01-30T12:12:07;115150.97;;;-141.28;44.17
12358;BME280;6243;51.244;6.774;2024-01-30T12:14:32;115150.97;;;-141.28;44.27
12358;BME280;6243;51.244;6.774;2024-01-30T12:16:58;115150.97;;;-141.28;44.00
12358;BME280;6243;51.244;6.774;2024-01-30T12:19:25;115150.97;;;-141.28;44.09
12358;BME280;6243;51.244;6.774;2024-01-30T12:21:54;115150.97;;;-141.28;44.40
12358;BME280;6243;51.244;6.774;2024-01-30T12:24:20;115150.97;;;-141.28;44.17
12358;BME280;6243;51.244;6.774;2024-01-30T12:26:45;115150.97;;;-141.28;44.50
12358;BME280;6243;51.244;6.774;2024-01-30T12:29:11;115150.97;;;-141.28;44.39
12358;BME280;6243;51.244;6.774;2024-01-30T12:31:36;115150.97;;;-141.28;44.52
12358;BME280;6243;51.244;6.774;2024-01-30T12:34:02;115150.97;;;-141.28;44.53